sensor_id;sensor_type;location;lat;lon;timestamp;temperature;humidity
52859;DHT22;38721;53.098;6.596;2023-06-14T00:00:13;15.90;99.90
52859;DHT22;38721;53.098;6.596;2023-06-14T00:02:40;15.80;99.90
52859;DHT22;38721;53.098;6.596;2023-06-14T00:05:07;15.70;99.90
52859;DHT22;38721;53.098;6.596;2023-06-14T00:07:38;15.70;1.00
52859;DHT22;38721;53.098;6.596;2023-06-14T00:10:08;15.70;1.00
52859;DHT22;38721;53.098;6.596;2023-06-14T00:12:34;15.70;99.90
52859;DHT22;38721;53.098;6.596;2023-06-14T00:14:59;15.60;99.90
52859;DHT22;38721;53.098;6.596;2023-06-14T00:17:27;15.60;99.90
52859;DHT22;38721;53.098;6.596;2023-06-14T00:19:59;15.60;99.90
52859;DHT22;38721;53.098;6.596;2023-06-14T00:22:24;15.60;1.00
52859;DHT22;38721;53.098;6.596;2023-06-14T00:24:51;15.50;1.00
52859;DHT22;38721;53.098;6.596;2023-06-14T00:27:17;15.40;99.90
52859;DHT22;38721;53.098;6.596;2023-06-14T00:29:43;15.30;99.90
52859;DHT22;38721;53.098;6.596;2023-06-14T00:32:08;15.20;99.90
52859;DHT22;38721;53.098;6.596;2023-06-14T00:34:34;15.20;99.90
52859;DHT22;38721;53.098;6.596;2023-06-14T00:37:00;15.10;1.00
52859;DHT22;38721;53.098;6.596;2023-06-14T00:39:26;15.10;99.90
52859;DHT22;38721;53.098;6.596;2023-06-14T00:41:52;15.00;99.90
52859;DHT22;38721;53.098;6.596;2023-06-14T00:44:17;14.90;1.00
52859;DHT22;38721;53.098;6.596;2023-06-14T00:46:45;14.90;99.90
52859;DHT22;38721;53.098;6.596;2023-06-14T00:49:12;14.90;99.90
52859;DHT22;38721;53.098;6.596;2023-06-14T00:51:41;14.80;99.90
52859;DHT22;38721;53.098;6.596;2023-06-14T00:54:07;14.80;99.90
52859;DHT22;38721;53.098;6.596;2023-06-14T00:56:36;14.80;1.00
52859;DHT22;38721;53.098;6.596;2023-06-14T00:59:02;14.80;99.90
52859;DHT22;38721;53.098;6.596;2023-06-14T01:01:29;14.70;99.90
52859;DHT22;38721;53.098;6.596;2023-06-14T01:03:58;14.80;99.90
52859;DHT22;38721;53.098;6.596;2023-06-14T01:06:32;14.70;1.00
52859;DHT22;38721;53.098;6.596;2023-06-14T01:11:35;14.70;46.50
52859;DHT22;38721;53.098;6.596;2023-06-14T01:14:02;14.70;99.90
52859;DHT22;38721;53.098;6.596;2023-06-14T01:16:29;14.60;11.50
52859;DHT22;38721;53.098;6.596;2023-06-14T01:18:57;14.60;1.00
52859;DHT22;38721;53.098;6.596;2023-06-14T01:21:24;14.50;23.50
52859;DHT22;38721;53.098;6.596;2023-06-14T01:23:51;14.50;1.00
52859;DHT22;38721;53.098;6.596;2023-06-14T01:26:22;14.50;99.90
52859;DHT22;38721;53.098;6.596;2023-06-14T01:28:50;14.40;99.90
52859;DHT22;38721;53.098;6.596;2023-06-14T01:31:21;14.40;1.00
52859;DHT22;38721;53.098;6.596;2023-06-14T01:33:49;14.40;99.90
52859;DHT22;38721;53.098;6.596;2023-06-14T01:36:19;14.30;99.90
52859;DHT22;38721;53.098;6.596;2023-06-14T01:38:47;14.30;99.90
52859;DHT22;38721;53.098;6.596;2023-06-14T01:41:15;14.30;99.90
52859;DHT22;38721;53.098;6.596;2023-06-14T01:43:41;14.20;99.90
52859;DHT22;38721;53.098;6.596;2023-06-14T01:46:08;14.20;99.90
52859;DHT22;38721;53.098;6.596;2023-06-14T01:48:35;14.20;99.90
52859;DHT22;38721;53.098;6.596;2023-06-14T01:51:01;14.20;99.90
52859;DHT22;38721;53.098;6.596;2023-06-14T01:53:26;14.20;99.90
52859;DHT22;38721;53.098;6.596;2023-06-14T01:55:52;14.20;99.90
52859;DHT22;38721;53.098;6.596;2023-06-14T01:58:19;14.10;99.90
52859;DHT22;38721;53.098;6.596;2023-06-14T02:00:45;14.10;99.90
52859;DHT22;38721;53.098;6.596;2023-06-14T02:03:14;14.10;99.90
52859;DHT22;38721;53.098;6.596;2023-06-14T02:05:41;14.10;99.90
52859;DHT22;38721;53.098;6.596;2023-06-14T02:08:07;14.20;99.90
52859;DHT22;38721;53.098;6.596;2023-06-14T02:10:33;14.10;99.90
52859;DHT22;38721;53.098;6.596;2023-06-14T02:12:59;14.20;99.90
52859;DHT22;38721;53.098;6.596;2023-06-14T02:15:24;14.10;99.90
52859;DHT22;38721;53.098;6.596;2023-06-14T02:18:01;14.10;99.90
52859;DHT22;38721;53.098;6.596;2023-06-14T02:20:27;14.10;99.90
52859;DHT22;38721;53.098;6.596;2023-06-14T02:22:57;14.10;99.90
52859;DHT22;38721;53.098;6.596;2023-06-14T02:25:23;14.10;99.90
52859;DHT22;38721;53.098;6.596;2023-06-14T02:27:49;14.10;99.90
52859;DHT22;38721;53.098;6.596;2023-06-14T02:30:15;14.10;99.90
52859;DHT22;38721;53.098;6.596;2023-06-14T02:32:41;14.00;99.90
52859;DHT22;38721;53.098;6.596;2023-06-14T02:35:08;14.00;99.90
52859;DHT22;38721;53.098;6.596;2023-06-14T02:37:34;13.90;99.90
52859;DHT22;38721;53.098;6.596;2023-06-14T02:40:04;13.80;99.90
52859;DHT22;38721;53.098;6.596;2023-06-14T02:42:31;13.80;99.90
52859;DHT22;38721;53.098;6.596;2023-06-14T02:44:57;13.80;99.90
52859;DHT22;38721;53.098;6.596;2023-06-14T02:47:22;13.80;99.90
52859;DHT22;38721;53.098;6.596;2023-06-14T02:49:48;13.80;99.90
52859;DHT22;38721;53.098;6.596;2023-06-14T02:52:14;13.70;99.90
52859;DHT22;38721;53.098;6.596;2023-06-14T02:54:40;13.70;99.90
52859;DHT22;38721;53.098;6.596;2023-06-14T02:57:05;13.70;99.90
52859;DHT22;38721;53.098;6.596;2023-06-14T02:59:33;13.70;99.90
52859;DHT22;38721;53.098;6.596;2023-06-14T03:01:59;13.60;99.90
52859;DHT22;38721;53.098;6.596;2023-06-14T03:04:25;13.60;99.90
52859;DHT22;38721;53.098;6.596;2023-06-14T03:06:54;13.50;99.90
52859;DHT22;38721;53.098;6.596;2023-06-14T03:09:20;13.50;99.90
52859;DHT22;38721;53.098;6.596;2023-06-14T03:11:46;13.50;99.90
52859;DHT22;38721;53.098;6.596;2023-06-14T03:14:13;13.40;99.90
52859;DHT22;38721;53.098;6.596;2023-06-14T03:16:39;13.40;99.90
52859;DHT22;38721;53.098;6.596;2023-06-14T03:19:06;13.40;99.90
52859;DHT22;38721;53.098;6.596;2023-06-14T03:21:32;13.30;99.90
52859;DHT22;38721;53.098;6.596;2023-06-14T03:24:00;13.40;99.90
52859;DHT22;38721;53.098;6.596;2023-06-14T03:26:28;13.40;99.90
52859;DHT22;38721;53.098;6.596;2023-06-14T03:28:55;13.40;99.90
52859;DHT22;38721;53.098;6.596;2023-06-14T03:31:21;13.40;99.90
52859;DHT22;38721;53.098;6.596;2023-06-14T03:33:47;13.40;99.90
52859;DHT22;38721;53.098;6.596;2023-06-14T03:36:13;13.40;99.90
52859;DHT22;38721;53.098;6.596;2023-06-14T03:38:38;13.40;99.90
52859;DHT22;38721;53.098;6.596;2023-06-14T03:41:04;13.40;99.90
52859;DHT22;38721;53.098;6.596;2023-06-14T03:43:29;13.40;99.90
52859;DHT22;38721;53.098;6.596;2023-06-14T03:45:55;13.50;99.90
52859;DHT22;38721;53.098;6.596;2023-06-14T03:48:21;13.50;99.90
52859;DHT22;38721;53.098;6.596;2023-06-14T03:50:47;13.50;99.90
52859;DHT22;38721;53.098;6.596;2023-06-14T03:53:12;13.60;99.90
52859;DHT22;38721;53.098;6.596;2023-06-14T03:55:38;13.60;99.90
52859;DHT22;38721;53.098;6.596;2023-06-14T03:58:05;13.60;99.90
52859;DHT22;38721;53.098;6.596;2023-06-14T04:00:31;13.70;99.90
52859;DHT22;38721;53.098;6.596;2023-06-14T04:03:00;13.70;99.90
52859;DHT22;38721;53.098;6.596;2023-06-14T04:05:26;13.80;99.90
52859;DHT22;38721;53.098;6.596;2023-06-14T04:07:52;13.90;99.90
52859;DHT22;38721;53.098;6.596;2023-06-14T04:10:21;13.90;99.90
52859;DHT22;38721;53.098;6.596;2023-06-14T04:12:46;14.00;99.90
52859;DHT22;38721;53.098;6.596;2023-06-14T04:15:12;14.10;99.90
52859;DHT22;38721;53.098;6.596;2023-06-14T04:17:39;14.20;99.90
52859;DHT22;38721;53.098;6.596;2023-06-14T04:20:05;14.20;99.90
52859;DHT22;38721;53.098;6.596;2023-06-14T04:22:33;14.30;99.90
52859;DHT22;38721;53.098;6.596;2023-06-14T04:24:58;14.40;99.90
52859;DHT22;38721;53.098;6.596;2023-06-14T04:27:26;14.50;99.90
52859;DHT22;38721;53.098;6.596;2023-06-14T04:29:54;14.50;99.90
52859;DHT22;38721;53.098;6.596;2023-06-14T04:32:29;14.60;99.90
52859;DHT22;38721;53.098;6.596;2023-06-14T04:35:06;14.70;99.90
52859;DHT22;38721;53.098;6.596;2023-06-14T04:37:32;14.80;99.90
52859;DHT22;38721;53.098;6.596;2023-06-14T04:39:59;14.90;99.90
52859;DHT22;38721;53.098;6.596;2023-06-14T04:42:28;14.90;99.90
52859;DHT22;38721;53.098;6.596;2023-06-14T04:44:59;15.00;99.90
52859;DHT22;38721;53.098;6.596;2023-06-14T04:47:24;15.00;99.90
52859;DHT22;38721;53.098;6.596;2023-06-14T04:49:54;15.10;99.90
52859;DHT22;38721;53.098;6.596;2023-06-14T04:52:21;15.10;99.90
52859;DHT22;38721;53.098;6.596;2023-06-14T04:54:47;15.30;99.90
52859;DHT22;38721;53.098;6.596;2023-06-14T04:57:12;15.30;99.90
52859;DHT22;38721;53.098;6.596;2023-06-14T04:59:43;15.50;99.90
52859;DHT22;38721;53.098;6.596;2023-06-14T05:02:10;15.50;99.90
52859;DHT22;38721;53.098;6.596;2023-06-14T05:04:37;15.70;99.90
52859;DHT22;38721;53.098;6.596;2023-06-14T05:07:09;15.70;99.90
52859;DHT22;38721;53.098;6.596;2023-06-14T05:09:38;15.80;99.90
52859;DHT22;38721;53.098;6.596;2023-06-14T05:12:04;15.80;99.90
52859;DHT22;38721;53.098;6.596;2023-06-14T05:14:36;15.90;99.90
52859;DHT22;38721;53.098;6.596;2023-06-14T05:17:02;16.00;99.90
52859;DHT22;38721;53.098;6.596;2023-06-14T05:19:28;16.00;99.90
52859;DHT22;38721;53.098;6.596;2023-06-14T05:21:54;16.10;99.90
52859;DHT22;38721;53.098;6.596;2023-06-14T05:24:20;16.30;99.90
52859;DHT22;38721;53.098;6.596;2023-06-14T05:26:46;16.40;99.90
52859;DHT22;38721;53.098;6.596;2023-06-14T05:29:12;16.40;99.90
52859;DHT22;38721;53.098;6.596;2023-06-14T05:31:40;16.60;99.90
52859;DHT22;38721;53.098;6.596;2023-06-14T05:34:06;16.60;99.90
52859;DHT22;38721;53.098;6.596;2023-06-14T05:36:34;16.70;99.90
52859;DHT22;38721;53.098;6.596;2023-06-14T05:39:02;16.70;99.90
52859;DHT22;38721;53.098;6.596;2023-06-14T05:41:28;16.70;99.90
52859;DHT22;38721;53.098;6.596;2023-06-14T05:43:55;16.90;99.90
52859;DHT22;38721;53.098;6.596;2023-06-14T05:46:21;17.00;99.90
52859;DHT22;38721;53.098;6.596;2023-06-14T05:48:50;17.10;99.90
52859;DHT22;38721;53.098;6.596;2023-06-14T05:51:16;17.20;99.90
52859;DHT22;38721;53.098;6.596;2023-06-14T05:53:48;17.20;99.90
52859;DHT22;38721;53.098;6.596;2023-06-14T05:56:15;17.20;1.00
52859;DHT22;38721;53.098;6.596;2023-06-14T05:58:41;17.30;1.00
52859;DHT22;38721;53.098;6.596;2023-06-14T06:01:06;17.40;99.90
52859;DHT22;38721;53.098;6.596;2023-06-14T06:03:32;17.50;1.00
52859;DHT22;38721;53.098;6.596;2023-06-14T06:05:59;17.60;99.90
52859;DHT22;38721;53.098;6.596;2023-06-14T06:08:25;17.70;99.90
52859;DHT22;38721;53.098;6.596;2023-06-14T06:10:51;17.80;99.90
52859;DHT22;38721;53.098;6.596;2023-06-14T06:13:16;17.80;1.00
52859;DHT22;38721;53.098;6.596;2023-06-14T06:15:42;17.90;99.90
52859;DHT22;38721;53.098;6.596;2023-06-14T06:18:11;17.90;99.90
52859;DHT22;38721;53.098;6.596;2023-06-14T06:20:36;18.00;99.90
52859;DHT22;38721;53.098;6.596;2023-06-14T06:23:02;18.10;8.10
52859;DHT22;38721;53.098;6.596;2023-06-14T06:25:28;18.20;99.90
52859;DHT22;38721;53.098;6.596;2023-06-14T06:27:54;18.40;1.00
52859;DHT22;38721;53.098;6.596;2023-06-14T06:30:22;18.40;99.90
52859;DHT22;38721;53.098;6.596;2023-06-14T06:32:48;18.50;99.90
52859;DHT22;38721;53.098;6.596;2023-06-14T06:35:13;18.50;67.50
52859;DHT22;38721;53.098;6.596;2023-06-14T06:37:40;18.60;98.60
52859;DHT22;38721;53.098;6.596;2023-06-14T06:40:06;18.80;99.90
52859;DHT22;38721;53.098;6.596;2023-06-14T06:42:33;18.90;99.90
52859;DHT22;38721;53.098;6.596;2023-06-14T06:44:58;18.90;99.90
52859;DHT22;38721;53.098;6.596;2023-06-14T06:47:24;19.10;99.90
52859;DHT22;38721;53.098;6.596;2023-06-14T06:49:50;19.10;1.00
52859;DHT22;38721;53.098;6.596;2023-06-14T06:52:16;19.30;99.90
52859;DHT22;38721;53.098;6.596;2023-06-14T06:54:42;19.50;99.90
52859;DHT22;38721;53.098;6.596;2023-06-14T06:57:07;19.50;99.90
52859;DHT22;38721;53.098;6.596;2023-06-14T06:59:35;19.60;45.90
52859;DHT22;38721;53.098;6.596;2023-06-14T07:02:00;19.60;99.90
52859;DHT22;38721;53.098;6.596;2023-06-14T07:04:26;19.80;1.00
52859;DHT22;38721;53.098;6.596;2023-06-14T07:06:52;19.90;99.90
52859;DHT22;38721;53.098;6.596;2023-06-14T07:09:17;20.10;99.90
52859;DHT22;38721;53.098;6.596;2023-06-14T07:11:46;20.00;99.90
52859;DHT22;38721;53.098;6.596;2023-06-14T07:14:12;20.20;99.90
52859;DHT22;38721;53.098;6.596;2023-06-14T07:16:38;20.20;1.00
52859;DHT22;38721;53.098;6.596;2023-06-14T07:19:04;20.30;4.90
52859;DHT22;38721;53.098;6.596;2023-06-14T07:21:30;20.40;1.00
52859;DHT22;38721;53.098;6.596;2023-06-14T07:23:56;20.60;1.00
52859;DHT22;38721;53.098;6.596;2023-06-14T07:26:22;20.50;99.90
52859;DHT22;38721;53.098;6.596;2023-06-14T07:28:48;20.70;1.00
52859;DHT22;38721;53.098;6.596;2023-06-14T07:31:15;20.70;99.90
52859;DHT22;38721;53.098;6.596;2023-06-14T07:33:41;20.60;99.90
52859;DHT22;38721;53.098;6.596;2023-06-14T07:36:08;20.90;99.90
52859;DHT22;38721;53.098;6.596;2023-06-14T07:38:33;21.10;99.90
52859;DHT22;38721;53.098;6.596;2023-06-14T07:41:00;21.10;99.90
52859;DHT22;38721;53.098;6.596;2023-06-14T07:43:26;21.20;99.90
52859;DHT22;38721;53.098;6.596;2023-06-14T07:45:51;21.20;99.90
52859;DHT22;38721;53.098;6.596;2023-06-14T07:48:18;21.30;99.90
52859;DHT22;38721;53.098;6.596;2023-06-14T07:50:43;21.40;99.90
52859;DHT22;38721;53.098;6.596;2023-06-14T07:53:09;21.30;99.90
52859;DHT22;38721;53.098;6.596;2023-06-14T07:55:35;21.30;99.90
52859;DHT22;38721;53.098;6.596;2023-06-14T07:58:06;21.30;99.90
52859;DHT22;38721;53.098;6.596;2023-06-14T08:00:34;21.50;99.90
52859;DHT22;38721;53.098;6.596;2023-06-14T08:03:00;21.50;99.90
52859;DHT22;38721;53.098;6.596;2023-06-14T08:05:27;21.50;71.60
52859;DHT22;38721;53.098;6.596;2023-06-14T08:07:53;21.60;54.00
52859;DHT22;38721;53.098;6.596;2023-06-14T08:10:18;21.60;99.90
52859;DHT22;38721;53.098;6.596;2023-06-14T08:12:44;21.60;56.50
52859;DHT22;38721;53.098;6.596;2023-06-14T08:15:10;21.90;71.90
52859;DHT22;38721;53.098;6.596;2023-06-14T08:17:36;21.90;78.30
52859;DHT22;38721;53.098;6.596;2023-06-14T08:20:02;22.10;17.20
52859;DHT22;38721;53.098;6.596;2023-06-14T08:22:30;22.30;5.90
52859;DHT22;38721;53.098;6.596;2023-06-14T08:24:59;22.20;1.00
52859;DHT22;38721;53.098;6.596;2023-06-14T08:27:25;22.20;1.00
52859;DHT22;38721;53.098;6.596;2023-06-14T08:29:51;22.10;1.00
52859;DHT22;38721;53.098;6.596;2023-06-14T08:32:16;22.20;1.00
52859;DHT22;38721;53.098;6.596;2023-06-14T08:34:42;22.30;1.00
52859;DHT22;38721;53.098;6.596;2023-06-14T08:37:07;22.40;1.00
52859;DHT22;38721;53.098;6.596;2023-06-14T08:39:33;22.50;1.00
52859;DHT22;38721;53.098;6.596;2023-06-14T08:42:01;22.50;1.00
52859;DHT22;38721;53.098;6.596;2023-06-14T08:44:28;22.60;1.00
52859;DHT22;38721;53.098;6.596;2023-06-14T08:46:56;22.70;1.00
52859;DHT22;38721;53.098;6.596;2023-06-14T08:49:23;22.70;1.00
52859;DHT22;38721;53.098;6.596;2023-06-14T08:52:00;22.90;1.00
52859;DHT22;38721;53.098;6.596;2023-06-14T08:54:29;22.80;1.00
52859;DHT22;38721;53.098;6.596;2023-06-14T08:56:59;23.30;1.00
52859;DHT22;38721;53.098;6.596;2023-06-14T08:59:26;23.30;1.00
52859;DHT22;38721;53.098;6.596;2023-06-14T09:01:53;23.40;1.00
52859;DHT22;38721;53.098;6.596;2023-06-14T09:04:20;23.50;99.90
52859;DHT22;38721;53.098;6.596;2023-06-14T09:06:47;23.60;99.90
52859;DHT22;38721;53.098;6.596;2023-06-14T09:09:19;23.60;99.90
52859;DHT22;38721;53.098;6.596;2023-06-14T09:11:50;23.50;99.90
52859;DHT22;38721;53.098;6.596;2023-06-14T09:14:15;23.60;99.90
52859;DHT22;38721;53.098;6.596;2023-06-14T09:16:41;23.40;99.90
52859;DHT22;38721;53.098;6.596;2023-06-14T09:19:07;23.40;99.90
52859;DHT22;38721;53.098;6.596;2023-06-14T09:21:40;23.60;99.90
52859;DHT22;38721;53.098;6.596;2023-06-14T09:24:13;23.80;99.90
52859;DHT22;38721;53.098;6.596;2023-06-14T09:26:42;23.70;99.90
52859;DHT22;38721;53.098;6.596;2023-06-14T09:29:09;23.90;99.90
52859;DHT22;38721;53.098;6.596;2023-06-14T09:31:35;23.90;99.90
52859;DHT22;38721;53.098;6.596;2023-06-14T09:34:02;23.90;99.90
52859;DHT22;38721;53.098;6.596;2023-06-14T09:36:28;23.80;99.90
52859;DHT22;38721;53.098;6.596;2023-06-14T09:39:01;24.10;99.90
52859;DHT22;38721;53.098;6.596;2023-06-14T09:41:35;24.30;99.90
52859;DHT22;38721;53.098;6.596;2023-06-14T09:44:03;24.30;99.90
52859;DHT22;38721;53.098;6.596;2023-06-14T09:46:29;24.30;99.90
52859;DHT22;38721;53.098;6.596;2023-06-14T09:48:56;24.50;99.90
52859;DHT22;38721;53.098;6.596;2023-06-14T09:51:23;24.60;99.90
52859;DHT22;38721;53.098;6.596;2023-06-14T09:53:49;24.60;99.90
52859;DHT22;38721;53.098;6.596;2023-06-14T09:56:28;24.70;99.90
52859;DHT22;38721;53.098;6.596;2023-06-14T09:58:57;24.90;99.90
52859;DHT22;38721;53.098;6.596;2023-06-14T10:01:24;24.90;99.90
52859;DHT22;38721;53.098;6.596;2023-06-14T10:03:55;24.90;99.90
52859;DHT22;38721;53.098;6.596;2023-06-14T10:06:24;24.90;99.90
52859;DHT22;38721;53.098;6.596;2023-06-14T10:08:52;24.90;99.90
52859;DHT22;38721;53.098;6.596;2023-06-14T10:11:18;24.70;99.90
52859;DHT22;38721;53.098;6.596;2023-06-14T10:13:44;24.80;99.90
52859;DHT22;38721;53.098;6.596;2023-06-14T10:16:23;24.80;99.90
52859;DHT22;38721;53.098;6.596;2023-06-14T10:18:54;25.00;99.90
52859;DHT22;38721;53.098;6.596;2023-06-14T10:21:32;25.00;99.90
52859;DHT22;38721;53.098;6.596;2023-06-14T10:24:03;25.10;99.90
52859;DHT22;38721;53.098;6.596;2023-06-14T10:26:30;25.10;99.90
52859;DHT22;38721;53.098;6.596;2023-06-14T10:29:07;25.20;99.90
52859;DHT22;38721;53.098;6.596;2023-06-14T10:31:43;24.90;99.90
52859;DHT22;38721;53.098;6.596;2023-06-14T10:34:10;24.90;99.90
52859;DHT22;38721;53.098;6.596;2023-06-14T10:36:36;25.20;99.90
52859;DHT22;38721;53.098;6.596;2023-06-14T10:39:05;25.00;99.90
52859;DHT22;38721;53.098;6.596;2023-06-14T10:41:35;25.40;99.90
52859;DHT22;38721;53.098;6.596;2023-06-14T10:46:52;25.20;99.90
52859;DHT22;38721;53.098;6.596;2023-06-14T10:49:19;25.60;99.90
52859;DHT22;38721;53.098;6.596;2023-06-14T10:51:46;25.80;99.90
52859;DHT22;38721;53.098;6.596;2023-06-14T10:54:21;25.80;99.90
52859;DHT22;38721;53.098;6.596;2023-06-14T10:56:51;26.20;99.90
52859;DHT22;38721;53.098;6.596;2023-06-14T10:59:18;26.20;99.90
52859;DHT22;38721;53.098;6.596;2023-06-14T11:04:34;26.80;99.90
52859;DHT22;38721;53.098;6.596;2023-06-14T11:07:40;26.90;99.90
52859;DHT22;38721;53.098;6.596;2023-06-14T11:10:40;27.00;99.90
52859;DHT22;38721;53.098;6.596;2023-06-14T11:13:09;26.70;99.90
52859;DHT22;38721;53.098;6.596;2023-06-14T11:15:38;26.60;99.90
52859;DHT22;38721;53.098;6.596;2023-06-14T11:18:08;26.60;99.90
52859;DHT22;38721;53.098;6.596;2023-06-14T11:20:37;26.50;99.90
52859;DHT22;38721;53.098;6.596;2023-06-14T11:23:03;27.00;99.90
52859;DHT22;38721;53.098;6.596;2023-06-14T11:25:30;27.10;99.90
52859;DHT22;38721;53.098;6.596;2023-06-14T11:27:56;27.10;99.90
52859;DHT22;38721;53.098;6.596;2023-06-14T11:30:23;27.10;99.90
52859;DHT22;38721;53.098;6.596;2023-06-14T11:32:50;27.00;99.90
52859;DHT22;38721;53.098;6.596;2023-06-14T11:35:18;26.70;99.90
52859;DHT22;38721;53.098;6.596;2023-06-14T11:37:44;27.00;99.90
52859;DHT22;38721;53.098;6.596;2023-06-14T11:40:11;27.10;99.90
52859;DHT22;38721;53.098;6.596;2023-06-14T11:42:39;27.50;99.90
52859;DHT22;38721;53.098;6.596;2023-06-14T11:45:08;27.80;99.90
52859;DHT22;38721;53.098;6.596;2023-06-14T11:47:35;27.80;99.90
52859;DHT22;38721;53.098;6.596;2023-06-14T11:50:02;28.10;99.90
52859;DHT22;38721;53.098;6.596;2023-06-14T11:52:28;27.70;99.90
52859;DHT22;38721;53.098;6.596;2023-06-14T11:54:54;28.00;99.90
52859;DHT22;38721;53.098;6.596;2023-06-14T11:57:20;27.70;99.90
52859;DHT22;38721;53.098;6.596;2023-06-14T11:59:46;27.90;99.90
52859;DHT22;38721;53.098;6.596;2023-06-14T12:02:16;27.70;99.90
52859;DHT22;38721;53.098;6.596;2023-06-14T12:04:48;28.00;99.90
52859;DHT22;38721;53.098;6.596;2023-06-14T12:07:18;28.10;99.90
52859;DHT22;38721;53.098;6.596;2023-06-14T12:12:26;28.00;99.90
52859;DHT22;38721;53.098;6.596;2023-06-14T12:14:52;28.00;99.90
52859;DHT22;38721;53.098;6.596;2023-06-14T12:17:19;28.40;99.90
52859;DHT22;38721;53.098;6.596;2023-06-14T12:19:46;28.00;99.90
52859;DHT22;38721;53.098;6.596;2023-06-14T12:22:13;28.10;99.90
52859;DHT22;38721;53.098;6.596;2023-06-14T12:24:42;28.40;99.90
52859;DHT22;38721;53.098;6.596;2023-06-14T12:27:08;28.60;99.90
52859;DHT22;38721;53.098;6.596;2023-06-14T12:29:34;28.30;99.90
52859;DHT22;38721;53.098;6.596;2023-06-14T12:32:00;28.30;99.90
52859;DHT22;38721;53.098;6.596;2023-06-14T12:34:27;28.60;99.90
52859;DHT22;38721;53.098;6.596;2023-06-14T12:36:53;28.30;99.90
52859;DHT22;38721;53.098;6.596;2023-06-14T12:39:20;28.80;99.90
52859;DHT22;38721;53.098;6.596;2023-06-14T12:41:46;28.80;99.90
52859;DHT22;38721;53.098;6.596;2023-06-14T12:44:12;29.30;99.90
52859;DHT22;38721;53.098;6.596;2023-06-14T12:46:39;29.20;99.90
52859;DHT22;38721;53.098;6.596;2023-06-14T12:49:11;27.90;99.90
52859;DHT22;38721;53.098;6.596;2023-06-14T12:51:40;27.20;99.90
52859;DHT22;38721;53.098;6.596;2023-06-14T12:54:06;28.10;99.90
52859;DHT22;38721;53.098;6.596;2023-06-14T12:56:32;28.60;99.90
52859;DHT22;38721;53.098;6.596;2023-06-14T12:58:58;28.60;99.90
52859;DHT22;38721;53.098;6.596;2023-06-14T13:01:24;28.70;99.90
52859;DHT22;38721;53.098;6.596;2023-06-14T13:03:49;29.00;99.90
52859;DHT22;38721;53.098;6.596;2023-06-14T13:06:17;29.40;99.90
52859;DHT22;38721;53.098;6.596;2023-06-14T13:08:42;29.60;99.90
52859;DHT22;38721;53.098;6.596;2023-06-14T13:11:08;29.60;99.90
52859;DHT22;38721;53.098;6.596;2023-06-14T13:13:34;29.30;99.90
52859;DHT22;38721;53.098;6.596;2023-06-14T13:16:03;29.60;99.90
52859;DHT22;38721;53.098;6.596;2023-06-14T13:18:29;29.30;99.90
52859;DHT22;38721;53.098;6.596;2023-06-14T13:20:54;28.50;99.90
52859;DHT22;38721;53.098;6.596;2023-06-14T13:23:20;27.60;99.90
52859;DHT22;38721;53.098;6.596;2023-06-14T13:25:46;27.50;99.90
52859;DHT22;38721;53.098;6.596;2023-06-14T13:28:12;28.50;99.90
52859;DHT22;38721;53.098;6.596;2023-06-14T13:30:37;29.40;99.90
52859;DHT22;38721;53.098;6.596;2023-06-14T13:33:03;29.50;99.90
52859;DHT22;38721;53.098;6.596;2023-06-14T13:35:28;29.20;99.90
52859;DHT22;38721;53.098;6.596;2023-06-14T13:37:54;29.50;99.90
52859;DHT22;38721;53.098;6.596;2023-06-14T13:40:20;29.20;99.90
52859;DHT22;38721;53.098;6.596;2023-06-14T13:42:46;29.50;99.90
52859;DHT22;38721;53.098;6.596;2023-06-14T13:45:12;30.00;99.90
52859;DHT22;38721;53.098;6.596;2023-06-14T13:47:39;30.10;99.90
52859;DHT22;38721;53.098;6.596;2023-06-14T13:50:05;30.30;99.90
52859;DHT22;38721;53.098;6.596;2023-06-14T13:52:31;30.40;99.90
52859;DHT22;38721;53.098;6.596;2023-06-14T13:54:56;30.60;99.90
52859;DHT22;38721;53.098;6.596;2023-06-14T13:57:22;30.60;99.90
52859;DHT22;38721;53.098;6.596;2023-06-14T13:59:48;30.90;99.90
52859;DHT22;38721;53.098;6.596;2023-06-14T14:02:14;31.20;99.90
52859;DHT22;38721;53.098;6.596;2023-06-14T14:04:40;30.60;99.90
52859;DHT22;38721;53.098;6.596;2023-06-14T14:07:06;30.90;99.90
52859;DHT22;38721;53.098;6.596;2023-06-14T14:09:33;31.60;99.90
52859;DHT22;38721;53.098;6.596;2023-06-14T14:12:00;31.00;99.90
52859;DHT22;38721;53.098;6.596;2023-06-14T14:14:28;30.00;99.90
52859;DHT22;38721;53.098;6.596;2023-06-14T14:16:53;28.90;99.90
52859;DHT22;38721;53.098;6.596;2023-06-14T14:19:23;28.40;99.90
52859;DHT22;38721;53.098;6.596;2023-06-14T14:21:49;28.10;99.90
52859;DHT22;38721;53.098;6.596;2023-06-14T14:24:15;28.70;99.90
52859;DHT22;38721;53.098;6.596;2023-06-14T14:26:41;29.60;99.90
52859;DHT22;38721;53.098;6.596;2023-06-14T14:29:07;30.40;99.90
52859;DHT22;38721;53.098;6.596;2023-06-14T14:31:33;30.90;99.90
52859;DHT22;38721;53.098;6.596;2023-06-14T14:33:59;30.70;99.90
52859;DHT22;38721;53.098;6.596;2023-06-14T14:36:25;30.10;99.90
52859;DHT22;38721;53.098;6.596;2023-06-14T14:38:50;29.00;99.90
52859;DHT22;38721;53.098;6.596;2023-06-14T14:41:17;28.30;99.90
52859;DHT22;38721;53.098;6.596;2023-06-14T14:43:43;28.30;99.90
52859;DHT22;38721;53.098;6.596;2023-06-14T14:46:09;29.50;99.90
52859;DHT22;38721;53.098;6.596;2023-06-14T14:48:35;30.40;99.90
52859;DHT22;38721;53.098;6.596;2023-06-14T14:51:00;30.80;99.90
52859;DHT22;38721;53.098;6.596;2023-06-14T14:53:26;29.70;99.90
52859;DHT22;38721;53.098;6.596;2023-06-14T14:55:52;31.30;99.90
52859;DHT22;38721;53.098;6.596;2023-06-14T14:58:17;30.30;99.90
52859;DHT22;38721;53.098;6.596;2023-06-14T15:00:47;31.30;99.90
52859;DHT22;38721;53.098;6.596;2023-06-14T15:03:13;31.70;99.90
52859;DHT22;38721;53.098;6.596;2023-06-14T15:05:39;31.60;99.90
52859;DHT22;38721;53.098;6.596;2023-06-14T15:08:05;32.90;99.90
52859;DHT22;38721;53.098;6.596;2023-06-14T15:10:37;32.90;99.90
52859;DHT22;38721;53.098;6.596;2023-06-14T15:13:06;32.10;99.90
52859;DHT22;38721;53.098;6.596;2023-06-14T15:15:32;30.70;99.90
52859;DHT22;38721;53.098;6.596;2023-06-14T15:17:59;29.90;96.50
52859;DHT22;38721;53.098;6.596;2023-06-14T15:20:25;31.00;99.90
52859;DHT22;38721;53.098;6.596;2023-06-14T15:22:51;31.00;99.90
52859;DHT22;38721;53.098;6.596;2023-06-14T15:25:18;29.60;92.60
52859;DHT22;38721;53.098;6.596;2023-06-14T15:27:44;29.30;91.10
52859;DHT22;38721;53.098;6.596;2023-06-14T15:30:10;30.00;99.70
52859;DHT22;38721;53.098;6.596;2023-06-14T15:32:36;31.60;99.90
52859;DHT22;38721;53.098;6.596;2023-06-14T15:35:02;32.80;99.90
52859;DHT22;38721;53.098;6.596;2023-06-14T15:37:28;34.60;99.90
52859;DHT22;38721;53.098;6.596;2023-06-14T15:39:53;34.70;99.90
52859;DHT22;38721;53.098;6.596;2023-06-14T15:42:19;35.40;99.90